Time;durP1;ratioP1;P1;durP2;ratioP2;P2;SDS_P1;SDS_P2;PMS_P1;PMS_P2;Temp;Humidity;BMP_temperature;BMP_pressure;BME280_temperature;BME280_humidity;BME280_pressure;Samples;Min_cycle;Max_cycle;Signal;HPM_P1;HPM_P2
2022/11/24 00:01:17;;;;;;;;;;;;;;;14.18;60.73;97772.66;5013826;28;19917;-91
2022/11/24 00:03:43;;;;;;;;;;;;;;;14.15;60.76;97771.16;5012625;28;19925;-90
2022/11/24 00:06:09;;;;;;;;;;;;;;;14.17;60.64;97773.63;5012637;28;19917;-89
2022/11/24 00:08:34;;;;;;;;;;;;;;;14.17;60.75;97768.38;4995279;28;20344;-90
2022/11/24 00:11:05;;;;;;;;;;;;;;;14.18;60.78;97770.84;5014867;28;19926;-90
2022/11/24 00:13:31;;;;;;;;;;;;;;;14.19;60.69;97769.88;5031264;28;20012;-90
2022/11/24 00:16:03;;;;;;;;;;;;;;;14.20;60.80;97776.78;5033725;28;19921;-91
2022/11/24 00:18:28;;;;;;;;;;;;;;;14.22;60.61;97774.78;5032573;28;19921;-86
2022/11/24 00:20:53;;;;;;;;;;;;;;;14.22;60.88;97777.41;5030841;28;19914;-87
2022/11/24 00:23:19;;;;;;;;;;;;;;;14.23;60.63;97773.81;5031098;28;19940;-89
2022/11/24 00:25:44;;;;;;;;;;;;;;;14.23;60.75;97772.97;5000093;28;20395;-88
2022/11/24 00:28:09;;;;;;;;;;;;;;;14.25;60.57;97774.47;5019117;28;19925;-88
2022/11/24 00:30:34;;;;;;;;;;;;;;;14.23;60.61;97775.59;5019235;28;20300;-88
2022/11/24 00:33:00;;;;;;;;;;;;;;;14.22;60.56;97774.78;5018051;28;19917;-88
2022/11/24 00:35:25;;;;;;;;;;;;;;;14.20;60.58;97768.06;5019161;28;19975;-89
2022/11/24 00:37:52;;;;;;;;;;;;;;;14.16;60.50;97767.56;5019270;28;19921;-89
2022/11/24 00:40:17;;;;;;;;;;;;;;;14.15;60.53;97760.66;5019654;28;19930;-89
2022/11/24 00:42:43;;;;;;;;;;;;;;;14.13;60.59;97761.84;5018199;28;19924;-90
2022/11/24 00:45:08;;;;;;;;;;;;;;;14.11;60.44;97759.38;5001149;28;20434;-88
2022/11/24 00:47:34;;;;;;;;;;;;;;;14.08;60.46;97759.69;5002383;28;19918;-87
2022/11/24 00:50:00;;;;;;;;;;;;;;;14.06;60.44;97754.63;5001273;28;19917;-87
2022/11/24 00:52:25;;;;;;;;;;;;;;;14.05;60.42;97760.03;5017923;28;19917;-88
2022/11/24 00:54:50;;;;;;;;;;;;;;;14.03;60.26;97762.00;5018042;28;20281;-88
2022/11/24 00:57:16;;;;;;;;;;;;;;;14.01;60.34;97764.78;5019056;28;20316;-88
2022/11/24 00:59:41;;;;;;;;;;;;;;;13.99;60.23;97763.28;5019274;28;19925;-87
2022/11/24 01:02:06;;;;;;;;;;;;;;;13.95;60.28;97749.69;5019202;28;19918;-88
2022/11/24 01:04:32;;;;;;;;;;;;;;;13.93;60.22;97759.50;5019258;28;20000;-89
2022/11/24 01:06:57;;;;;;;;;;;;;;;13.90;60.29;97767.72;5001686;28;20430;-88
2022/11/24 01:09:22;;;;;;;;;;;;;;;13.87;60.21;97753.13;5017859;28;19972;-89
2022/11/24 01:12:03;;;;;;;;;;;;;;;13.84;59.92;97761.31;5018738;28;19925;-88
2022/11/24 01:14:28;;;;;;;;;;;;;;;13.82;60.10;97757.19;5001346;28;20020;-88
2022/11/24 01:16:53;;;;;;;;;;;;;;;13.77;60.01;97765.56;5019200;28;19925;-87
2022/11/24 01:19:19;;;;;;;;;;;;;;;13.74;60.08;97758.84;5019061;28;19924;-88
2022/11/24 01:21:44;;;;;;;;;;;;;;;13.72;59.97;97766.03;5001242;28;20402;-88
2022/11/24 01:24:10;;;;;;;;;;;;;;;13.70;60.04;97765.38;5017645;28;19925;-88
2022/11/24 01:26:35;;;;;;;;;;;;;;;13.67;59.97;97765.69;5018866;28;20352;-88
2022/11/24 01:29:00;;;;;;;;;;;;;;;13.65;59.85;97772.91;5017579;28;19942;-89
2022/11/24 01:31:25;;;;;;;;;;;;;;;13.63;60.00;97768.81;5001133;28;19918;-88
2022/11/24 01:33:51;;;;;;;;;;;;;;;13.62;59.78;97764.56;5000482;28;20281;-88
2022/11/24 01:36:16;;;;;;;;;;;;;;;13.59;59.96;97764.88;5016576;28;19917;-87
2022/11/24 01:38:41;;;;;;;;;;;;;;;13.57;59.72;97767.66;5014528;28;20020;-87
2022/11/24 01:41:09;;;;;;;;;;;;;;;13.55;59.84;97766.97;5015645;28;20322;-87
2022/11/24 01:43:35;;;;;;;;;;;;;;;13.52;59.71;97762.88;5015715;28;19925;-88
2022/11/24 01:46:21;;;;;;;;;;;;;;;13.52;59.54;97765.50;5015733;28;19917;-87
2022/11/24 01:48:51;;;;;;;;;;;;;;;13.48;59.74;97773.84;5016067;28;20352;-88
2022/11/24 01:51:18;;;;;;;;;;;;;;;13.45;59.84;97777.59;5015681;28;20368;-88
2022/11/24 01:53:45;;;;;;;;;;;;;;;13.43;59.68;97782.19;4997810;28;20414;-88
2022/11/24 01:56:11;;;;;;;;;;;;;;;13.42;59.69;97780.53;5015130;28;19943;-90
2022/11/24 01:58:36;;;;;;;;;;;;;;;13.41;59.54;97780.69;4998480;28;19922;-89
2022/11/24 02:01:01;;;;;;;;;;;;;;;13.41;59.45;97778.06;5014960;28;19940;-90
2022/11/24 02:03:28;;;;;;;;;;;;;;;13.39;59.49;97775.59;4997780;28;20380;-90
2022/11/24 02:05:57;;;;;;;;;;;;;;;13.38;59.81;97772.19;5019226;28;19917;-89
2022/11/24 02:08:33;;;;;;;;;;;;;;;13.37;59.69;97773.16;5001582;28;19917;-89
2022/11/24 02:10:59;;;;;;;;;;;;;;;13.36;59.42;97776.78;5015981;28;19945;-89
2022/11/24 02:13:25;;;;;;;;;;;;;;;13.36;59.38;97773.31;4998527;28;19967;-90
2022/11/24 02:15:51;;;;;;;;;;;;;;;13.33;59.41;97773.63;4997813;28;19914;-89
2022/11/24 02:18:16;;;;;;;;;;;;;;;13.31;59.64;97778.19;4997348;28;19917;-90
2022/11/24 02:20:41;;;;;;;;;;;;;;;13.31;59.73;97783.41;5014587;28;19914;-90
2022/11/24 02:23:13;;;;;;;;;;;;;;;13.31;59.68;97776.38;5014429;28;19967;-89
2022/11/24 02:25:44;;;;;;;;;;;;;;;13.29;59.55;97778.34;4998303;28;20006;-90
2022/11/24 02:28:11;;;;;;;;;;;;;;;13.31;59.71;97783.41;4998299;28;20391;-90
2022/11/24 02:30:36;;;;;;;;;;;;;;;13.33;59.77;97778.84;5015051;28;19921;-91
2022/11/24 02:33:02;;;;;;;;;;;;;;;13.34;59.60;97781.31;5014684;28;19972;-90
2022/11/24 02:35:27;;;;;;;;;;;;;;;13.36;59.64;97776.78;5014957;28;19922;-91
2022/11/24 02:37:52;;;;;;;;;;;;;;;13.39;59.46;97778.22;4997844;28;19972;-91
2022/11/24 02:40:19;;;;;;;;;;;;;;;13.42;59.44;97777.91;5015169;28;19951;-84
2022/11/24 02:42:44;;;;;;;;;;;;;;;13.43;59.56;97771.69;4997138;28;20459;-78
2022/11/24 02:45:10;;;;;;;;;;;;;;;13.45;59.56;97764.50;5013157;28;19968;-86
2022/11/24 02:47:35;;;;;;;;;;;;;;;13.48;59.54;97777.28;5012348;28;20017;-86
2022/11/24 02:50:00;;;;;;;;;;;;;;;13.49;59.82;97770.22;5013967;28;19926;-85
2022/11/24 02:52:26;;;;;;;;;;;;;;;13.52;59.85;97764.66;5012908;28;19932;-85
2022/11/24 02:54:51;;;;;;;;;;;;;;;13.54;59.59;97768.78;5013116;28;19921;-88
2022/11/24 02:57:16;;;;;;;;;;;;;;;13.59;59.71;97767.50;4996113;28;19918;-89
2022/11/24 02:59:42;;;;;;;;;;;;;;;13.58;59.73;97766.66;5012927;28;19918;-88
2022/11/24 03:02:09;;;;;;;;;;;;;;;13.63;59.74;97771.41;5013973;28;19925;-88
2022/11/24 03:04:34;;;;;;;;;;;;;;;13.65;59.90;97764.25;5012778;28;19917;-88
2022/11/24 03:06:59;;;;;;;;;;;;;;;13.67;59.76;97770.13;5012986;28;19924;-89
2022/11/24 03:09:25;;;;;;;;;;;;;;;13.68;59.96;97767.34;5014653;28;19929;-91
2022/11/24 03:11:50;;;;;;;;;;;;;;;13.70;60.00;97773.25;5009915;28;19929;-89
2022/11/24 03:14:15;;;;;;;;;;;;;;;13.72;59.85;97765.22;4993087;28;20328;-89
2022/11/24 03:16:40;;;;;;;;;;;;;;;13.76;60.08;97769.19;5009470;28;19991;-89
2022/11/24 03:19:06;;;;;;;;;;;;;;;13.76;60.12;97769.19;4992885;28;19918;-89
2022/11/24 03:21:31;;;;;;;;;;;;;;;13.78;60.02;97767.19;5009550;28;19918;-88
2022/11/24 03:23:56;;;;;;;;;;;;;;;13.80;59.91;97761.78;4992552;28;19917;-88
2022/11/24 03:26:22;;;;;;;;;;;;;;;13.81;60.21;97769.50;5009287;28;20389;-89
2022/11/24 03:28:48;;;;;;;;;;;;;;;13.83;60.12;97770.16;5009306;28;19933;-88
2022/11/24 03:31:13;;;;;;;;;;;;;;;13.83;60.06;97769.34;5009115;28;19918;-88
2022/11/24 03:33:38;;;;;;;;;;;;;;;13.82;60.20;97765.91;5008943;28;19918;-87
2022/11/24 03:36:04;;;;;;;;;;;;;;;13.82;60.10;97765.06;5019350;28;20407;-87
2022/11/24 03:38:29;;;;;;;;;;;;;;;13.81;60.16;97773.94;5013685;28;19932;-88
2022/11/24 03:40:54;;;;;;;;;;;;;;;13.77;60.11;97770.78;5011648;28;19933;-88
2022/11/24 03:43:20;;;;;;;;;;;;;;;13.75;60.12;97772.78;5028417;28;19925;-88
2022/11/24 03:45:45;;;;;;;;;;;;;;;13.71;60.02;97771.44;5028915;28;19918;-87
2022/11/24 03:48:11;;;;;;;;;;;;;;;13.67;59.79;97775.38;5012017;28;19925;-86
2022/11/24 03:50:36;;;;;;;;;;;;;;;13.64;59.73;97778.31;5030171;28;19918;-88
2022/11/24 03:53:02;;;;;;;;;;;;;;;13.61;59.83;97770.78;5014981;28;20313;-87
2022/11/24 03:55:27;;;;;;;;;;;;;;;13.56;59.71;97782.53;5029506;28;19925;-87
2022/11/24 03:57:52;;;;;;;;;;;;;;;13.52;59.82;97785.66;5014059;28;19975;-86
2022/11/24 04:00:17;;;;;;;;;;;;;;;13.48;59.70;97792.19;5028948;28;19922;-86
2022/11/24 04:02:43;;;;;;;;;;;;;;;13.45;59.56;97801.19;5013044;28;20346;-90
2022/11/24 04:05:08;;;;;;;;;;;;;;;13.41;59.56;97799.88;5029217;28;19974;-89
2022/11/24 04:07:33;;;;;;;;;;;;;;;13.37;59.85;97798.53;5028625;28;20004;-90
2022/11/24 04:09:59;;;;;;;;;;;;;;;13.33;59.49;97802.44;5011732;28;20007;-90
2022/11/24 04:12:42;;;;;;;;;;;;;;;13.29;59.55;97803.72;5028221;28;19921;-89
2022/11/24 04:15:08;;;;;;;;;;;;;;;13.24;59.58;97800.78;5026284;28;19921;-88
2022/11/24 04:17:33;;;;;;;;;;;;;;;13.20;59.82;97801.06;5012757;28;19941;-90
2022/11/24 04:19:58;;;;;;;;;;;;;;;13.19;59.62;97811.72;5028446;28;19924;-87
2022/11/24 04:22:24;;;;;;;;;;;;;;;13.15;59.65;97813.81;5013087;28;20307;-86
2022/11/24 04:24:49;;;;;;;;;;;;;;;13.14;59.68;97817.41;5011649;28;19917;-87
2022/11/24 04:27:14;;;;;;;;;;;;;;;13.09;59.39;97824.09;5013095;28;19925;-88
2022/11/24 04:29:40;;;;;;;;;;;;;;;13.07;59.45;97826.88;5028235;28;19921;-87
2022/11/24 04:32:05;;;;;;;;;;;;;;;13.05;59.63;97826.22;5011232;28;19925;-88
2022/11/24 04:34:30;;;;;;;;;;;;;;;13.02;59.34;97824.72;5011629;28;19918;-87
2022/11/24 04:36:56;;;;;;;;;;;;;;;13.01;59.50;97823.09;5030360;28;19917;-88
2022/11/24 04:39:21;;;;;;;;;;;;;;;12.99;59.54;97832.06;5028381;28;19975;-88
2022/11/24 04:41:47;;;;;;;;;;;;;;;12.97;59.41;97829.59;5027994;28;19918;-85
2022/11/24 04:44:12;;;;;;;;;;;;;;;12.93;59.42;97825.63;5011318;28;19972;-85
2022/11/24 04:46:37;;;;;;;;;;;;;;;12.91;59.63;97830.22;5011572;28;19973;-84
2022/11/24 04:49:03;;;;;;;;;;;;;;;12.86;59.54;97829.84;5027947;28;19924;-86
2022/11/24 04:51:31;;;;;;;;;;;;;;;12.85;59.49;97833.44;5005595;28;19922;-90
2022/11/24 04:53:57;;;;;;;;;;;;;;;12.82;59.39;97837.22;4963994;28;19929;-81
2022/11/24 04:56:22;;;;;;;;;;;;;;;12.82;59.19;97829.34;4980152;28;19918;-85
2022/11/24 04:58:48;;;;;;;;;;;;;;;12.81;59.54;97838.19;4979977;28;19922;-81
2022/11/24 05:01:13;;;;;;;;;;;;;;;12.92;67.71;97834.50;4981452;28;19973;-79
2022/11/24 05:03:39;;;;;;;;;;;;;;;13.19;69.97;97838.72;4980818;28;19933;-89
2022/11/24 05:06:04;;;;;;;;;;;;;;;13.24;68.50;97840.88;4982928;28;19922;-90
2022/11/24 05:08:30;;;;;;;;;;;;;;;13.49;72.10;97852.34;4965016;28;20404;-87
2022/11/24 05:10:55;;;;;;;;;;;;;;;13.42;67.13;97847.88;4967031;28;20301;-92
2022/11/24 05:13:20;;;;;;;;;;;;;;;13.34;65.43;97853.91;4986244;28;20308;-87
2022/11/24 05:15:45;;;;;;;;;;;;;;;13.27;64.28;97858.94;5005536;28;19920;-88
2022/11/24 05:18:11;;;;;;;;;;;;;;;13.21;63.50;97859.53;4987175;28;20362;-84
2022/11/24 05:20:38;;;;;;;;;;;;;;;13.17;63.24;97855.56;5004323;28;19919;-84
2022/11/24 05:23:04;;;;;;;;;;;;;;;13.11;62.93;97856.19;4989313;28;19925;-86
2022/11/24 05:25:30;;;;;;;;;;;;;;;13.06;62.49;97861.88;4987024;28;19918;-85
2022/11/24 05:27:59;;;;;;;;;;;;;;;13.02;62.49;97856.16;4987175;28;19925;-86
2022/11/24 05:30:25;;;;;;;;;;;;;;;13.01;61.95;97864.16;5002440;28;20465;-84
2022/11/24 05:32:50;;;;;;;;;;;;;;;12.96;61.82;97859.38;5004523;28;20004;-85
2022/11/24 05:35:17;;;;;;;;;;;;;;;12.94;61.63;97856.09;5004844;28;20305;-85
2022/11/24 05:37:43;;;;;;;;;;;;;;;12.93;61.46;97858.88;4985925;28;19917;-85
2022/11/24 05:40:08;;;;;;;;;;;;;;;12.93;61.45;97864.13;4987242;28;19926;-84
2022/11/24 05:42:39;;;;;;;;;;;;;;;12.91;61.21;97860.84;4986704;28;19918;-84
2022/11/24 05:45:05;;;;;;;;;;;;;;;12.91;60.84;97863.44;4985360;28;19925;-83
2022/11/24 05:47:33;;;;;;;;;;;;;;;12.93;60.82;97854.44;5002847;28;19925;-83
2022/11/24 05:49:59;;;;;;;;;;;;;;;13.03;60.52;97864.84;5004380;28;19926;-85
2022/11/24 05:52:24;;;;;;;;;;;;;;;13.11;60.33;97871.91;5001690;28;19937;-85
2022/11/24 05:54:49;;;;;;;;;;;;;;;13.30;59.87;97868.25;5003864;28;19917;-85
2022/11/24 05:57:15;;;;;;;;;;;;;;;13.59;59.20;97875.81;4984925;28;19918;-83
2022/11/24 05:59:41;;;;;;;;;;;;;;;13.99;58.58;97871.69;4970196;28;19924;-85
2022/11/24 06:02:06;;;;;;;;;;;;;;;14.44;57.58;97873.09;4984963;28;19917;-85
2022/11/24 06:04:31;;;;;;;;;;;;;;;15.12;56.16;97878.19;4970096;28;19918;-85
2022/11/24 06:06:57;;;;;;;;;;;;;;;15.81;54.58;97886.38;5002132;28;20805;-85
2022/11/24 06:09:22;;;;;;;;;;;;;;;16.20;53.97;97880.25;4991953;28;19922;-86
2022/11/24 06:11:47;;;;;;;;;;;;;;;17.08;51.99;97878.13;4985982;28;20401;-86
2022/11/24 06:14:14;;;;;;;;;;;;;;;18.07;49.70;97877.03;5007304;28;19925;-85
2022/11/24 06:16:39;;;;;;;;;;;;;;;19.05;46.63;97876.53;4991451;28;20011;-85
2022/11/24 06:19:05;;;;;;;;;;;;;;;20.12;44.08;97888.53;5000451;28;20289;-85
2022/11/24 06:21:31;;;;;;;;;;;;;;;21.25;42.07;97882.53;4988968;28;19980;-84
2022/11/24 06:23:56;;;;;;;;;;;;;;;22.11;40.03;97885.97;4981898;28;19918;-84
2022/11/24 06:26:22;;;;;;;;;;;;;;;22.78;38.18;97890.91;5003093;28;19988;-86
2022/11/24 06:28:47;;;;;;;;;;;;;;;23.26;37.32;97894.81;4968701;28;19918;-84
2022/11/24 06:31:12;;;;;;;;;;;;;;;23.61;36.27;97897.75;4968711;28;20376;-85
2022/11/24 06:33:38;;;;;;;;;;;;;;;23.74;36.04;97898.66;4986991;28;19964;-85
2022/11/24 06:36:04;;;;;;;;;;;;;;;23.65;35.51;97896.25;4987848;28;19918;-85
2022/11/24 06:38:30;;;;;;;;;;;;;;;23.67;35.74;97904.03;4988296;28;19961;-84
2022/11/24 06:40:59;;;;;;;;;;;;;;;23.73;35.90;97902.34;4982371;28;19953;-85
2022/11/24 06:43:25;;;;;;;;;;;;;;;23.79;35.75;97901.44;5004340;28;20012;-84
2022/11/24 06:45:53;;;;;;;;;;;;;;;23.90;35.38;97902.59;4973917;28;19917;-85
2022/11/24 06:48:19;;;;;;;;;;;;;;;23.97;36.68;97905.97;4976803;28;19989;-82
2022/11/24 06:50:48;;;;;;;;;;;;;;;24.31;37.73;97903.69;4987172;28;19918;-82
2022/11/24 06:53:14;;;;;;;;;;;;;;;24.56;36.13;97906.22;4978792;28;20013;-79
2022/11/24 06:55:39;;;;;;;;;;;;;;;24.78;35.33;97903.88;4960486;28;19924;-80
2022/11/24 06:58:05;;;;;;;;;;;;;;;24.94;34.68;97907.72;4993152;28;20004;-79
2022/11/24 07:00:33;;;;;;;;;;;;;;;25.08;34.41;97909.13;5006740;28;19917;-81
2022/11/24 07:02:59;;;;;;;;;;;;;;;25.24;33.69;97912.16;5007248;28;19921;-81
2022/11/24 07:05:24;;;;;;;;;;;;;;;25.32;33.68;97913.69;4994142;28;20294;-80
2022/11/24 07:07:50;;;;;;;;;;;;;;;25.52;33.16;97913.31;4966703;28;19993;-80
2022/11/24 07:10:15;;;;;;;;;;;;;;;25.70;32.56;97910.53;4998805;28;19918;-78
2022/11/24 07:12:41;;;;;;;;;;;;;;;25.99;31.74;97911.41;5007560;28;20431;-79
2022/11/24 07:15:06;;;;;;;;;;;;;;;26.25;31.04;97917.25;4979582;28;20242;-79
2022/11/24 07:17:34;;;;;;;;;;;;;;;26.57;30.84;97918.63;4964136;28;19937;-80
2022/11/24 07:20:01;;;;;;;;;;;;;;;26.75;30.53;97914.97;4992888;28;20435;-80
2022/11/24 07:22:26;;;;;;;;;;;;;;;26.90;29.71;97905.31;4986941;28;20329;-79
2022/11/24 07:24:52;;;;;;;;;;;;;;;27.06;29.33;97908.22;4992034;28;19925;-79
2022/11/24 07:27:17;;;;;;;;;;;;;;;27.13;29.46;97908.88;4970241;28;20428;-81
2022/11/24 07:29:43;;;;;;;;;;;;;;;27.22;29.30;97911.97;4993678;28;20020;-79
2022/11/24 07:32:08;;;;;;;;;;;;;;;27.30;29.13;97916.09;4977475;28;19945;-80
2022/11/24 07:34:33;;;;;;;;;;;;;;;27.46;28.77;97907.22;4991580;28;19925;-80
2022/11/24 07:36:58;;;;;;;;;;;;;;;27.53;28.43;97901.69;4990823;28;19941;-79
2022/11/24 07:39:24;;;;;;;;;;;;;;;27.72;28.48;97902.19;4981065;28;19921;-81
2022/11/24 07:41:50;;;;;;;;;;;;;;;27.77;28.20;97904.97;5006238;28;19937;-84
2022/11/24 07:44:16;;;;;;;;;;;;;;;27.89;28.00;97904.84;5010670;28;19921;-80
2022/11/24 07:46:42;;;;;;;;;;;;;;;27.93;27.97;97912.13;5010368;28;20024;-81
2022/11/24 07:49:07;;;;;;;;;;;;;;;27.96;29.67;97900.94;4990226;28;19922;-80
2022/11/24 07:51:33;;;;;;;;;;;;;;;27.98;30.28;97908.72;4979150;28;19917;-80
2022/11/24 07:53:58;;;;;;;;;;;;;;;28.04;30.28;97912.25;5003085;28;20436;-80
2022/11/24 07:56:23;;;;;;;;;;;;;;;28.05;30.14;97911.22;4982945;28;20344;-73
2022/11/24 07:58:49;;;;;;;;;;;;;;;28.04;31.59;97923.00;5000971;28;19922;-73
2022/11/24 08:01:14;;;;;;;;;;;;;;;28.11;31.34;97919.06;5002116;28;19917;-75
2022/11/24 08:03:40;;;;;;;;;;;;;;;28.24;30.77;97915.19;4985320;28;20358;-76
2022/11/24 08:06:05;;;;;;;;;;;;;;;28.37;29.31;97916.69;4985390;28;19925;-78
2022/11/24 08:08:34;;;;;;;;;;;;;;;28.41;30.54;97914.28;4983741;28;19932;-77
2022/11/24 08:11:03;;;;;;;;;;;;;;;28.55;30.50;97914.69;4999725;28;20744;-77
2022/11/24 08:13:28;;;;;;;;;;;;;;;28.67;29.61;97915.34;4966395;28;20316;-79
2022/11/24 08:15:53;;;;;;;;;;;;;;;28.85;28.74;97911.50;4984090;28;20000;-77
2022/11/24 08:18:18;;;;;;;;;;;;;;;28.97;27.54;97905.94;4983120;28;19990;-77
2022/11/24 08:20:44;;;;;;;;;;;;;;;29.10;27.22;97908.22;4985178;28;19967;-76
2022/11/24 08:23:09;;;;;;;;;;;;;;;29.24;26.88;97913.97;4967042;28;19980;-79
2022/11/24 08:25:35;;;;;;;;;;;;;;;29.31;26.25;97911.88;4983813;28;19917;-77
2022/11/24 08:28:01;;;;;;;;;;;;;;;29.41;26.85;97903.88;4968630;28;19925;-77
2022/11/24 08:30:26;;;;;;;;;;;;;;;29.55;25.78;97900.72;4983008;28;20355;-79
2022/11/24 08:32:52;;;;;;;;;;;;;;;29.66;25.94;97909.63;5001183;28;19924;-77
2022/11/24 08:35:17;;;;;;;;;;;;;;;29.76;25.17;97915.88;4968436;28;19918;-78
2022/11/24 08:37:42;;;;;;;;;;;;;;;29.85;24.98;97910.81;4989290;28;19921;-77
2022/11/24 08:40:08;;;;;;;;;;;;;;;30.00;24.71;97911.94;5005365;28;20281;-77
2022/11/24 08:42:33;;;;;;;;;;;;;;;30.11;25.01;97914.44;4984531;28;19936;-78
2022/11/24 08:44:59;;;;;;;;;;;;;;;30.21;24.66;97912.84;4983018;28;19922;-80
2022/11/24 08:47:24;;;;;;;;;;;;;;;30.35;23.88;97915.81;4972361;28;19917;-80
2022/11/24 08:49:49;;;;;;;;;;;;;;;30.48;24.11;97913.47;5004577;28;19979;-80
2022/11/24 08:52:19;;;;;;;;;;;;;;;30.63;23.31;97915.38;4992812;28;19918;-88
2022/11/24 08:54:45;;;;;;;;;;;;;;;30.80;23.71;97914.28;5003487;28;19969;-84
2022/11/24 08:57:10;;;;;;;;;;;;;;;30.86;23.18;97918.63;5005216;28;19922;-87
2022/11/24 08:59:35;;;;;;;;;;;;;;;31.07;23.06;97914.03;4988782;28;19918;-85
2022/11/24 09:02:01;;;;;;;;;;;;;;;31.25;22.71;97919.94;4992330;28;19918;-83
2022/11/24 09:04:28;;;;;;;;;;;;;;;31.63;22.38;97915.88;5000540;28;19925;-85
2022/11/24 09:06:53;;;;;;;;;;;;;;;32.12;21.79;97914.34;5006083;28;19917;-84
2022/11/24 09:09:19;;;;;;;;;;;;;;;32.36;21.32;97909.06;4972286;28;20391;-85
2022/11/24 09:11:44;;;;;;;;;;;;;;;32.39;21.56;97911.22;4989495;28;19925;-85
2022/11/24 09:14:09;;;;;;;;;;;;;;;32.40;21.41;97912.00;5003902;28;19985;-86
2022/11/24 09:16:34;;;;;;;;;;;;;;;32.36;21.26;97910.97;5004682;28;19975;-85
2022/11/24 09:19:00;;;;;;;;;;;;;;;32.17;21.41;97910.81;4989275;28;19929;-85
2022/11/24 09:21:26;;;;;;;;;;;;;;;32.05;21.44;97906.50;4986153;28;19918;-86
2022/11/24 09:23:51;;;;;;;;;;;;;;;32.05;21.49;97905.72;4988477;28;19917;-87
2022/11/24 09:26:21;;;;;;;;;;;;;;;32.65;20.64;97905.66;4972824;28;19960;-86
2022/11/24 09:28:47;;;;;;;;;;;;;;;33.57;19.67;97903.22;4988279;28;20008;-85
2022/11/24 09:31:13;;;;;;;;;;;;;;;34.74;18.56;97909.03;5007242;28;19957;-88
2022/11/24 09:33:38;;;;;;;;;;;;;;;35.60;17.71;97902.38;4973015;28;19917;-87
2022/11/24 09:36:04;;;;;;;;;;;;;;;36.70;16.68;97905.19;4990261;28;19917;-87
2022/11/24 09:38:29;;;;;;;;;;;;;;;37.43;15.71;97902.28;4987108;28;19951;-86
2022/11/24 09:40:54;;;;;;;;;;;;;;;37.67;15.57;97901.91;4972946;28;19918;-86
2022/11/24 09:43:23;;;;;;;;;;;;;;;37.85;15.53;97901.97;4987429;28;19921;-86
2022/11/24 09:45:50;;;;;;;;;;;;;;;38.44;15.08;97898.84;5003778;28;19918;-85
2022/11/24 09:48:18;;;;;;;;;;;;;;;38.23;15.13;97890.50;5004318;28;19972;-86
2022/11/24 09:50:44;;;;;;;;;;;;;;;38.03;15.08;97897.34;5005174;28;19918;-85
2022/11/24 09:53:13;;;;;;;;;;;;;;;37.55;15.71;97891.59;4989133;28;19922;-86
2022/11/24 09:55:41;;;;;;;;;;;;;;;37.08;15.83;97893.94;4989944;28;19918;-88
2022/11/24 09:58:11;;;;;;;;;;;;;;;36.48;16.88;97890.47;5010178;28;19924;-85
2022/11/24 10:00:37;;;;;;;;;;;;;;;35.76;17.68;97891.25;4987040;28;19917;-86
2022/11/24 10:03:03;;;;;;;;;;;;;;;35.23;18.41;97887.84;4975460;28;20440;-88
2022/11/24 10:05:32;;;;;;;;;;;;;;;34.75;18.58;97890.84;4991957;28;19925;-85
2022/11/24 10:08:01;;;;;;;;;;;;;;;34.33;19.29;97877.13;4992439;28;19953;-86
2022/11/24 10:10:34;;;;;;;;;;;;;;;33.90;19.46;97882.53;4991228;28;20316;-86
2022/11/24 10:13:02;;;;;;;;;;;;;;;33.54;20.05;97882.94;4987569;28;19932;-85
2022/11/24 10:15:37;;;;;;;;;;;;;;;33.26;20.40;97874.63;5001839;28;19982;-86
2022/11/24 10:18:11;;;;;;;;;;;;;;;32.94;20.55;97875.16;4988621;28;19969;-86
2022/11/24 10:20:41;;;;;;;;;;;;;;;32.69;21.03;97871.59;4990174;28;20399;-86
2022/11/24 10:23:19;;;;;;;;;;;;;;;32.35;21.68;97877.75;4993758;28;19929;-86
2022/11/24 10:25:57;;;;;;;;;;;;;;;32.06;21.61;97880.34;4987111;28;19918;-85
2022/11/24 10:28:24;;;;;;;;;;;;;;;31.77;22.29;97875.63;5007528;28;19941;-86
2022/11/24 10:30:50;;;;;;;;;;;;;;;31.58;22.38;97872.75;4970829;28;19976;-84
2022/11/24 10:33:15;;;;;;;;;;;;;;;31.39;22.47;97873.28;4970944;28;19918;-85
2022/11/24 10:35:51;;;;;;;;;;;;;;;31.30;22.94;97874.13;4987479;28;19917;-86
2022/11/24 10:38:19;;;;;;;;;;;;;;;31.19;22.97;97871.44;4973101;28;19922;-84
2022/11/24 10:40:52;;;;;;;;;;;;;;;30.77;23.27;97877.13;4982028;28;20452;-85
2022/11/24 10:43:21;;;;;;;;;;;;;;;30.69;23.18;97878.47;4973506;28;20009;-85
2022/11/24 10:45:46;;;;;;;;;;;;;;;30.36;23.38;97883.25;4987543;28;19922;-84
2022/11/24 10:48:19;;;;;;;;;;;;;;;29.63;23.31;97886.75;4973439;28;19918;-87
2022/11/24 10:50:44;;;;;;;;;;;;;;;28.97;23.50;97890.66;4969438;28;19972;-86
2022/11/24 10:53:20;;;;;;;;;;;;;;;28.39;24.05;97901.13;4985646;28;20332;-88
2022/11/24 10:55:55;;;;;;;;;;;;;;;28.17;24.28;97901.16;4984565;28;20001;-89
2022/11/24 10:58:31;;;;;;;;;;;;;;;27.91;24.18;97887.44;4985048;28;19922;-85
2022/11/24 11:01:00;;;;;;;;;;;;;;;27.79;24.29;97884.06;5009062;28;19961;-87
2022/11/24 11:03:27;;;;;;;;;;;;;;;27.86;24.38;97889.25;5001978;28;20282;-87
2022/11/24 11:05:58;;;;;;;;;;;;;;;27.81;24.16;97876.56;4966666;28;20000;-87
2022/11/24 11:08:28;;;;;;;;;;;;;;;27.72;24.36;97870.88;4968538;28;19932;-88
2022/11/24 11:11:13;;;;;;;;;;;;;;;27.42;24.94;97874.75;5006179;28;19918;-85
2022/11/24 11:13:39;;;;;;;;;;;;;;;27.13;25.27;97874.03;5006214;28;19918;-86
2022/11/24 11:16:12;;;;;;;;;;;;;;;26.98;25.98;97884.50;4970612;28;19924;-86
2022/11/24 11:18:38;;;;;;;;;;;;;;;26.67;26.15;97886.72;5007122;28;20277;-86
2022/11/24 11:21:03;;;;;;;;;;;;;;;26.38;26.53;97889.41;4993877;28;19929;-86
2022/11/24 11:23:35;;;;;;;;;;;;;;;26.04;27.06;97891.97;5007833;28;19921;-88
2022/11/24 11:26:20;;;;;;;;;;;;;;;25.57;28.29;97897.41;4971881;28;20516;-85
2022/11/24 11:29:18;;;;;;;;;;;;;;;24.96;29.54;97897.63;4985665;28;20348;-86
2022/11/24 11:31:50;;;;;;;;;;;;;;;24.42;30.88;97902.13;4929158;29;19981;-85
2022/11/24 11:34:17;;;;;;;;;;;;;;;24.01;31.96;97915.16;4937549;29;19951;-89
2022/11/24 11:36:44;;;;;;;;;;;;;;;23.64;32.88;97913.28;4937030;29;20021;-88
2022/11/24 11:39:17;;;;;;;;;;;;;;;23.30;33.85;97907.47;4945594;29;19919;-89
2022/11/24 11:41:43;;;;;;;;;;;;;;;22.98;34.51;97914.69;4930931;29;20394;-91
2022/11/24 11:44:30;;;;;;;;;;;;;;;22.69;34.82;97918.78;4955017;29;19931;-91
2022/11/24 11:46:55;;;;;;;;;;;;;;;22.38;35.79;97915.09;4936966;29;19919;-88
2022/11/24 11:49:20;;;;;;;;;;;;;;;22.14;36.23;97919.25;4936649;29;19918;-86
2022/11/24 11:51:54;;;;;;;;;;;;;;;21.90;36.95;97926.09;4940897;29;20382;-89
2022/11/24 11:54:29;;;;;;;;;;;;;;;21.68;37.40;97924.56;4923587;29;19933;-90
2022/11/24 11:57:03;;;;;;;;;;;;;;;21.48;37.95;97931.72;4940715;29;19919;-88
2022/11/24 11:59:40;;;;;;;;;;;;;;;21.30;38.16;97933.16;4942021;29;20015;-89
2022/11/24 12:02:09;;;;;;;;;;;;;;;21.13;38.73;97932.75;4936907;29;19987;-88
2022/11/24 12:04:37;;;;;;;;;;;;;;;21.03;39.10;97934.19;4922678;29;19943;-88
2022/11/24 12:07:02;;;;;;;;;;;;;;;20.92;39.48;97936.44;4945118;28;20013;-87
2022/11/24 12:09:28;;;;;;;;;;;;;;;20.83;39.82;97931.53;5012169;28;19964;-90
2022/11/24 12:12:02;;;;;;;;;;;;;;;20.72;39.94;97925.81;4989394;28;20008;-87
2022/11/24 12:14:31;;;;;;;;;;;;;;;20.67;40.12;97922.09;5000535;28;19941;-88
2022/11/24 12:17:16;;;;;;;;;;;;;;;20.61;40.29;97921.06;4993006;28;19917;-88
2022/11/24 12:19:54;;;;;;;;;;;;;;;20.54;40.58;97929.00;4987372;28;19975;-89
2022/11/24 12:22:19;;;;;;;;;;;;;;;20.46;40.76;97923.88;5005870;28;19918;-88
2022/11/24 12:25:03;;;;;;;;;;;;;;;20.39;41.00;97913.25;4989421;28;19918;-91
2022/11/24 12:27:36;;;;;;;;;;;;;;;20.31;41.14;97910.00;4991813;28;19944;-89
2022/11/24 12:30:04;;;;;;;;;;;;;;;20.24;41.13;97909.94;4993975;28;19968;-88
2022/11/24 12:32:48;;;;;;;;;;;;;;;20.17;41.31;97917.88;5002756;28;19917;-89
2022/11/24 12:35:16;;;;;;;;;;;;;;;20.11;41.47;97918.66;5008355;28;19924;-89
2022/11/24 12:37:53;;;;;;;;;;;;;;;20.02;41.50;97922.50;4987715;28;19954;-89
2022/11/24 12:40:24;;;;;;;;;;;;;;;19.92;41.50;97925.53;4989483;28;19925;-87
2022/11/24 12:42:50;;;;;;;;;;;;;;;19.80;42.03;97919.97;4985900;28;19922;-89
2022/11/24 12:45:16;;;;;;;;;;;;;;;19.73;42.00;97921.75;4990268;28;19917;-87
2022/11/24 12:47:53;;;;;;;;;;;;;;;19.64;42.00;97926.38;4988425;28;19922;-90